Impacts TAF Board INFO
FOR SITUATIONAL AWARENESS. NOT TO BE USED FOR FLIGHT PLANNING PURPOSES.
IDs:

KBFM - Mobile/Downtown Arpt, AL, US

Issued at 0529 UTC 17 Aug 2018
Updated at 0932 UTC 17 Aug 2018
Potential Impact None Slight Moderate High
Time<<17/22Z 17/23Z 18/00Z 18/01Z 18/02Z 18/03Z 18/04Z 18/05Z 18/06Z 18/07Z 18/08Z 18/09Z 18/10Z>>
Type PRVL PRVL PRVL PRVL PRVL PRVL PRVL PRVL
VIS >6 >6 >6 >6 >6 >6 >6 >6
CIG -- -- -- -- -- -- -- --
Cover SCT SCT SCT SCT SCT SCT SCT SCT
FltCat VFR VFR VFR VFR VFR VFR VFR VFR
WX VCTS VCTS VCTS VCTS VCTS VCTS VCTS VCTS
WDir 160 160 160 160 160 160 160 160
WSpd 8 8 8 8 8 8 8 8
WGst -- -- -- -- -- -- -- --

Raw TAF
KBFM 170529Z 1706/1806 00000KT P6SM SCT020
  FM170900 16002KT P6SM VCSH SCT025 SCT250
  TEMPO 1714/1718 4SM TSRA BKN030CB
  FM171800 16008KT P6SM VCTS SCT035CB SCT250
  TEMPO 1718/1722 4SM TSRA BKN030CB


METAR Board
Radar Display
Forecast Discussion

FOR SITUATIONAL AWARENESS. NOT TO BE USED FOR FLIGHT PLANNING PURPOSES.